Time;durP1;ratioP1;P1;durP2;ratioP2;P2;SDS_P1;SDS_P2;PMS_P1;PMS_P2;Temp;Humidity;BMP_temperature;BMP_pressure;BME280_temperature;BME280_humidity;BME280_pressure;Samples;Min_cycle;Max_cycle;Signal;HPM_P1;HPM_P2
2021/12/07 00:00:07;;;;;;;14.73;10.95;;;14.90;70.40;;;;;;4216831;28;20040;-64
2021/12/07 00:02:29;;;;;;;15.77;10.80;;;14.90;70.40;;;;;;4225002;28;20135;-64
2021/12/07 00:04:51;;;;;;;14.88;11.20;;;14.90;70.40;;;;;;4226056;28;20054;-64
2021/12/07 00:07:13;;;;;;;14.60;10.70;;;14.90;70.40;;;;;;4221545;27;20059;-65
2021/12/07 00:09:37;;;;;;;12.32;10.07;;;14.90;70.40;;;;;;4209700;28;20063;-66
2021/12/07 00:12:03;;;;;;;13.32;10.75;;;14.90;70.00;;;;;;4209345;28;20046;-66
2021/12/07 00:14:33;;;;;;;13.85;10.48;;;14.90;70.00;;;;;;4208984;28;20457;-62
2021/12/07 00:16:56;;;;;;;13.68;10.63;;;14.90;70.40;;;;;;4209179;28;20051;-67
2021/12/07 00:19:18;;;;;;;11.65;9.50;;;14.90;70.40;;;;;;4223609;28;20615;-62
2021/12/07 00:21:43;;;;;;;12.70;9.45;;;15.00;70.50;;;;;;4225456;28;20403;-62
2021/12/07 00:24:06;;;;;;;11.50;9.88;;;15.00;70.20;;;;;;4224046;27;20569;-63
2021/12/07 00:26:32;;;;;;;12.45;9.55;;;15.00;70.10;;;;;;4224742;27;20043;-62
2021/12/07 00:28:55;;;;;;;11.27;9.45;;;15.00;70.00;;;;;;4221324;28;20047;-62
2021/12/07 00:31:26;;;;;;;11.77;9.57;;;15.00;70.00;;;;;;4207567;28;20044;-62
2021/12/07 00:33:53;;;;;;;10.93;9.25;;;15.00;70.00;;;;;;4207047;28;20047;-62
2021/12/07 00:36:15;;;;;;;10.70;9.23;;;15.00;70.40;;;;;;4208968;28;20048;-61
2021/12/07 00:38:37;;;;;;;11.07;9.93;;;15.00;70.30;;;;;;4208571;28;20052;-60
2021/12/07 00:41:01;;;;;;;11.20;9.90;;;15.10;70.20;;;;;;4206433;28;20044;-61
2021/12/07 00:43:28;;;;;;;12.30;10.20;;;15.10;70.00;;;;;;4208869;28;20048;-62
2021/12/07 00:45:51;;;;;;;11.65;9.82;;;15.10;69.70;;;;;;4208407;28;20130;-61
2021/12/07 00:48:15;;;;;;;10.68;8.95;;;15.10;70.10;;;;;;4207218;28;20079;-61
2021/12/07 00:50:39;;;;;;;11.45;10.07;;;15.10;70.10;;;;;;4207044;28;20055;-61
2021/12/07 00:53:05;;;;;;;11.43;9.43;;;15.10;70.00;;;;;;4207426;28;20040;-61
2021/12/07 00:55:31;;;;;;;12.10;10.27;;;15.10;70.30;;;;;;4206748;28;20059;-61
2021/12/07 00:57:57;;;;;;;10.85;9.75;;;15.20;70.00;;;;;;4211838;28;20051;-60
2021/12/07 01:00:22;;;;;;;10.50;9.40;;;15.20;69.80;;;;;;4207463;28;20481;-61
2021/12/07 01:02:44;;;;;;;10.55;9.00;;;15.30;69.60;;;;;;4207370;28;20062;-61
2021/12/07 01:05:15;;;;;;;10.48;9.05;;;15.30;69.40;;;;;;4208741;28;20046;-61
2021/12/07 01:07:55;;;;;;;12.40;9.77;;;15.30;69.40;;;;;;4208718;28;20070;-61
2021/12/07 01:26:16;;;;;;;11.43;9.73;;;15.60;68.70;;;;;;4207730;28;20495;-61
2021/12/07 01:28:42;;;;;;;10.80;9.32;;;15.60;68.60;;;;;;4208545;28;20518;-61
2021/12/07 01:31:15;;;;;;;10.32;9.15;;;15.60;68.40;;;;;;4208682;28;20048;-61
2021/12/07 01:33:54;;;;;;;11.40;9.65;;;15.50;68.10;;;;;;4207971;28;20487;-61
2021/12/07 01:42:46;;;;;;;10.02;8.77;;;15.50;68.80;;;;;;4208028;28;20056;-62
2021/12/07 01:44:40;;;;;;;11.55;9.35;;;15.40;69.00;;;;;;4206409;28;20135;-62
2021/12/07 01:47:25;;;;;;;11.40;8.98;;;15.40;69.10;;;;;;4207625;28;20147;-61
2021/12/07 01:52:43;;;;;;;10.07;9.00;;;15.30;69.20;;;;;;4208731;28;20380;-62
2021/12/07 01:59:31;;;;;;;9.75;8.75;;;15.30;69.90;;;;;;4210138;28;20125;-61
2021/12/07 02:00:41;;;;;;;10.65;9.55;;;15.40;69.90;;;;;;4209640;28;20077;-61
2021/12/07 02:03:05;;;;;;;8.98;8.05;;;15.40;69.40;;;;;;4210817;28;20044;-61
2021/12/07 02:05:27;;;;;;;9.88;8.30;;;15.50;68.90;;;;;;4211372;28;20051;-61
2021/12/07 02:07:50;;;;;;;8.93;8.02;;;15.50;68.50;;;;;;4209812;28;20051;-62
2021/12/07 02:10:16;;;;;;;8.95;8.05;;;15.60;68.60;;;;;;4209902;28;20046;-62
2021/12/07 02:12:44;;;;;;;9.40;8.13;;;15.60;68.50;;;;;;4214445;28;20047;-61
2021/12/07 02:15:07;;;;;;;8.82;7.93;;;15.60;68.20;;;;;;4226630;27;20036;-61
2021/12/07 02:17:33;;;;;;;9.45;8.13;;;15.60;68.10;;;;;;4226501;28;20043;-61
2021/12/07 02:19:57;;;;;;;8.93;7.85;;;15.70;67.90;;;;;;4218848;28;20060;-61
2021/12/07 02:22:21;;;;;;;8.77;7.88;;;15.60;67.80;;;;;;4224727;28;20519;-61
2021/12/07 02:24:46;;;;;;;9.27;8.30;;;15.60;67.80;;;;;;4226630;28;20086;-61
2021/12/07 02:27:09;;;;;;;8.73;7.70;;;15.60;68.00;;;;;;4226550;28;20054;-61
2021/12/07 02:29:31;;;;;;;9.13;7.47;;;15.60;67.80;;;;;;4226583;28;20058;-62
2021/12/07 02:31:55;;;;;;;8.90;8.00;;;15.60;67.80;;;;;;4213614;28;20131;-61
2021/12/07 02:34:18;;;;;;;8.45;7.60;;;15.60;67.50;;;;;;4210340;28;20483;-61
2021/12/07 02:36:41;;;;;;;8.65;7.75;;;15.60;67.70;;;;;;4226140;28;20046;-62
2021/12/07 02:39:08;;;;;;;9.65;7.97;;;15.50;67.60;;;;;;4225886;28;20515;-62
2021/12/07 02:41:30;;;;;;;7.93;7.00;;;15.50;68.00;;;;;;4226233;28;20047;-61
2021/12/07 02:43:52;;;;;;;8.77;7.97;;;15.40;68.50;;;;;;4214728;28;20519;-62
2021/12/07 02:46:14;;;;;;;9.10;8.15;;;15.50;68.70;;;;;;4209154;28;20135;-61
2021/12/07 02:48:36;;;;;;;9.10;8.25;;;15.50;68.70;;;;;;4210454;28;20059;-61
2021/12/07 02:50:59;;;;;;;7.95;7.22;;;15.50;68.40;;;;;;4209131;28;20469;-61
2021/12/07 02:53:25;;;;;;;9.00;7.75;;;15.60;68.60;;;;;;4209391;28;20040;-61
2021/12/07 02:55:50;;;;;;;9.63;8.63;;;15.70;68.40;;;;;;4218337;28;20455;-61
2021/12/07 02:58:12;;;;;;;8.80;7.90;;;15.80;67.90;;;;;;4226050;28;20048;-61
2021/12/07 03:00:42;;;;;;;9.38;8.45;;;15.90;67.30;;;;;;4208972;28;20082;-62
2021/12/07 03:03:08;;;;;;;8.48;7.68;;;15.90;66.80;;;;;;4208521;28;20055;-61
2021/12/07 03:05:40;;;;;;;9.25;8.35;;;16.00;66.70;;;;;;4209685;28;20048;-62
2021/12/07 03:08:24;;;;;;;8.43;7.57;;;16.00;66.50;;;;;;4209103;28;20063;-61
2021/12/07 03:26:56;;;;;;;7.85;7.15;;;15.70;67.30;;;;;;4208486;28;20044;-61
2021/12/07 03:29:18;;;;;;;7.10;6.45;;;15.70;67.40;;;;;;4209699;28;20052;-61
2021/12/07 03:31:39;;;;;;;7.57;6.88;;;15.70;67.10;;;;;;4216189;28;20470;-61
2021/12/07 03:34:03;;;;;;;7.18;6.50;;;15.70;66.90;;;;;;4208508;28;20048;-61
2021/12/07 03:36:28;;;;;;;7.60;6.90;;;15.70;66.80;;;;;;4208594;28;20043;-62
2021/12/07 03:38:53;;;;;;;6.93;6.22;;;15.70;67.00;;;;;;4215840;28;20407;-61
2021/12/07 03:41:15;;;;;;;7.60;6.90;;;15.70;67.40;;;;;;4226836;28;20043;-61
2021/12/07 03:43:40;;;;;;;7.07;6.47;;;15.80;67.70;;;;;;4216865;28;20047;-61
2021/12/07 03:46:03;;;;;;;7.50;6.80;;;15.80;67.20;;;;;;4208347;28;20048;-63
2021/12/07 03:48:26;;;;;;;7.57;6.97;;;15.80;67.10;;;;;;4209776;28;20052;-61
2021/12/07 03:50:48;;;;;;;6.20;5.70;;;15.80;67.00;;;;;;4208423;28;20036;-62
2021/12/07 03:53:10;;;;;;;7.03;6.43;;;15.80;67.10;;;;;;4208454;28;20376;-62
2021/12/07 03:55:33;;;;;;;7.45;6.60;;;15.80;66.90;;;;;;4216766;28;20106;-62
2021/12/07 03:57:55;;;;;;;7.32;6.72;;;15.80;67.00;;;;;;4222654;28;20048;-62
2021/12/07 04:00:22;;;;;;;7.82;7.13;;;15.70;67.00;;;;;;4208249;28;20070;-62
2021/12/07 04:02:50;;;;;;;7.80;7.17;;;15.70;67.90;;;;;;4210426;27;20532;-62
2021/12/07 04:05:18;;;;;;;7.22;6.63;;;15.60;68.40;;;;;;4224879;28;20825;-62
2021/12/07 04:07:42;;;;;;;7.75;7.05;;;15.60;67.50;;;;;;4224157;28;20051;-62
2021/12/07 04:10:06;;;;;;;7.60;6.85;;;15.50;67.70;;;;;;4224575;28;20066;-61
2021/12/07 04:12:28;;;;;;;7.18;6.57;;;15.50;67.90;;;;;;4225410;27;20058;-61
2021/12/07 04:14:50;;;;;;;7.90;7.10;;;15.50;68.10;;;;;;4207804;28;20067;-61
2021/12/07 04:17:13;;;;;;;7.97;7.28;;;15.60;68.10;;;;;;4209383;28;20051;-59
2021/12/07 04:19:35;;;;;;;8.05;7.15;;;15.60;67.90;;;;;;4220791;28;20060;-61
2021/12/07 04:21:57;;;;;;;8.57;7.78;;;15.60;67.90;;;;;;4224274;28;20077;-62
2021/12/07 04:24:19;;;;;;;7.53;6.82;;;15.60;67.70;;;;;;4225250;28;20055;-61
2021/12/07 04:26:43;;;;;;;8.52;7.38;;;15.60;67.70;;;;;;4209221;28;20553;-62
2021/12/07 04:29:05;;;;;;;8.35;7.63;;;15.70;67.70;;;;;;4209339;28;20044;-61
2021/12/07 04:31:27;;;;;;;8.88;8.07;;;15.80;67.50;;;;;;4209164;28;20050;-62
2021/12/07 04:33:50;;;;;;;8.27;7.47;;;15.80;67.20;;;;;;4208664;28;20040;-61
2021/12/07 04:36:13;;;;;;;9.27;8.38;;;15.90;66.80;;;;;;4208601;28;20052;-62
2021/12/07 04:38:34;;;;;;;8.45;7.70;;;15.90;66.70;;;;;;4222913;28;20475;-61
2021/12/07 04:40:56;;;;;;;8.50;7.70;;;15.90;66.50;;;;;;4211296;28;20052;-61
2021/12/07 04:43:19;;;;;;;9.10;8.07;;;15.80;66.50;;;;;;4208907;28;20071;-61
2021/12/07 04:45:56;;;;;;;9.93;8.50;;;15.80;66.60;;;;;;4210102;28;20044;-61
2021/12/07 04:48:49;;;;;;;8.18;7.10;;;15.70;66.70;;;;;;4208862;27;20132;-61
2021/12/07 04:59:12;;;;;;;7.63;7.03;;;15.80;67.20;;;;;;4223809;28;20143;-61
2021/12/07 05:01:35;;;;;;;8.90;8.00;;;15.80;67.30;;;;;;4225687;28;20457;-61
2021/12/07 05:04:00;;;;;;;8.57;7.55;;;15.80;67.10;;;;;;4225381;28;20126;-61
2021/12/07 05:06:27;;;;;;;8.48;7.65;;;15.90;66.90;;;;;;4212749;28;20093;-62
2021/12/07 05:08:56;;;;;;;7.93;7.22;;;15.90;66.70;;;;;;4208606;28;20101;-61
2021/12/07 05:11:43;;;;;;;8.25;7.53;;;15.90;66.80;;;;;;4218722;28;20053;-61
2021/12/07 05:14:16;;;;;;;8.55;7.60;;;15.90;66.60;;;;;;4225304;28;20134;-61
2021/12/07 05:16:51;;;;;;;7.68;6.97;;;16.00;66.40;;;;;;4211154;27;20067;-61
2021/12/07 05:23:54;;;;;;;8.93;6.72;;;16.10;66.20;;;;;;4208199;28;20048;-61
2021/12/07 05:25:00;;;;;;;8.00;7.22;;;16.30;65.70;;;;;;4208282;28;20054;-62
2021/12/07 05:38:00;;;;;;;9.40;7.10;;;16.50;65.30;;;;;;4211574;28;20410;-61
2021/12/07 05:40:24;;;;;;;6.90;6.30;;;16.50;64.60;;;;;;4211500;28;20066;-61
2021/12/07 05:42:47;;;;;;;6.70;6.07;;;16.40;64.50;;;;;;4211337;28;20044;-62
2021/12/07 05:45:14;;;;;;;8.85;6.80;;;16.40;64.50;;;;;;4211666;28;20144;-61
2021/12/07 05:47:36;;;;;;;7.47;6.88;;;16.40;64.50;;;;;;4211432;28;20491;-61
2021/12/07 05:49:58;;;;;;;7.85;7.15;;;16.40;64.70;;;;;;4211731;28;20055;-62
2021/12/07 05:52:20;;;;;;;7.53;6.90;;;16.40;64.70;;;;;;4211447;28;20471;-61
2021/12/07 05:54:44;;;;;;;8.38;7.55;;;16.30;64.70;;;;;;4211563;28;20548;-61
2021/12/07 05:57:07;;;;;;;7.55;6.82;;;16.30;64.70;;;;;;4211125;28;20044;-62
2021/12/07 05:59:29;;;;;;;7.70;7.00;;;16.30;65.00;;;;;;4212266;27;20479;-62
2021/12/07 06:01:51;;;;;;;8.60;7.38;;;16.20;65.10;;;;;;4211964;28;20040;-61
2021/12/07 06:04:13;;;;;;;7.95;7.25;;;16.30;65.10;;;;;;4211616;28;20097;-62
2021/12/07 06:06:36;;;;;;;9.95;7.93;;;16.30;64.90;;;;;;4211465;28;20048;-61
2021/12/07 06:08:58;;;;;;;8.18;7.15;;;16.30;65.10;;;;;;4225948;27;20063;-61
2021/12/07 06:11:23;;;;;;;7.93;7.15;;;16.40;65.10;;;;;;4228181;27;20059;-61
2021/12/07 06:13:46;;;;;;;7.70;6.93;;;16.40;64.70;;;;;;4227679;27;20043;-61
2021/12/07 06:16:08;;;;;;;7.72;7.03;;;16.50;64.40;;;;;;4226274;27;20044;-61
2021/12/07 06:18:30;;;;;;;7.80;7.03;;;16.50;64.00;;;;;;4211663;28;20044;-61
2021/12/07 06:20:53;;;;;;;6.68;6.07;;;16.50;64.00;;;;;;4210839;28;20050;-62
2021/12/07 06:23:16;;;;;;;6.68;6.07;;;16.50;64.10;;;;;;4211101;28;20140;-61
2021/12/07 06:25:39;;;;;;;6.78;6.07;;;16.40;64.30;;;;;;4210506;28;20058;-61
2021/12/07 06:28:03;;;;;;;7.03;6.20;;;16.40;64.20;;;;;;4210548;28;20568;-61
2021/12/07 06:30:25;;;;;;;8.50;6.13;;;16.50;64.20;;;;;;4224269;28;20043;-62
2021/12/07 06:32:48;;;;;;;9.05;5.28;;;16.40;64.10;;;;;;4226921;27;20066;-61
2021/12/07 06:35:11;;;;;;;5.85;5.20;;;16.40;64.10;;;;;;4227626;27;20123;-61
2021/12/07 06:37:32;;;;;;;5.63;4.68;;;16.30;63.70;;;;;;4227766;27;20058;-61
2021/12/07 06:39:55;;;;;;;4.78;4.32;;;16.30;64.60;;;;;;4226158;27;20486;-61
2021/12/07 06:42:17;;;;;;;4.68;4.10;;;16.30;64.80;;;;;;4214393;28;20048;-61
2021/12/07 06:44:41;;;;;;;4.75;3.95;;;16.30;64.70;;;;;;4210223;28;20105;-61
2021/12/07 06:47:03;;;;;;;5.05;4.50;;;16.30;64.70;;;;;;4210819;28;20059;-61
2021/12/07 06:49:26;;;;;;;4.63;4.15;;;16.30;64.70;;;;;;4209127;28;20507;-61
2021/12/07 06:51:50;;;;;;;4.82;4.43;;;16.30;64.70;;;;;;4210596;28;20051;-61
2021/12/07 06:54:12;;;;;;;6.05;4.05;;;16.20;65.00;;;;;;4210084;28;20048;-61
2021/12/07 06:56:34;;;;;;;7.10;4.20;;;16.20;64.90;;;;;;4210438;28;20052;-61
2021/12/07 06:58:56;;;;;;;8.48;4.80;;;16.20;65.00;;;;;;4214342;27;20133;-61
2021/12/07 07:01:19;;;;;;;6.85;4.65;;;16.20;65.20;;;;;;4210417;28;20052;-64
2021/12/07 07:03:42;;;;;;;6.03;4.88;;;16.20;65.40;;;;;;4215056;28;20154;-61
2021/12/07 07:06:05;;;;;;;6.15;4.57;;;16.20;65.60;;;;;;4227277;27;21553;-61
2021/12/07 07:08:27;;;;;;;7.25;4.03;;;16.30;65.30;;;;;;4226236;27;20105;-61
2021/12/07 07:10:49;;;;;;;4.20;3.78;;;16.30;64.80;;;;;;4227338;27;20056;-61
2021/12/07 07:13:12;;;;;;;5.07;4.10;;;16.30;64.70;;;;;;4213231;28;20121;-62
2021/12/07 07:15:34;;;;;;;8.85;4.43;;;16.30;64.70;;;;;;4210134;28;20523;-62
2021/12/07 07:17:58;;;;;;;4.55;3.95;;;16.30;64.60;;;;;;4219948;28;20054;-62
2021/12/07 07:20:20;;;;;;;5.55;4.22;;;16.20;64.60;;;;;;4217831;28;20075;-62
2021/12/07 07:22:42;;;;;;;4.70;4.30;;;16.20;64.50;;;;;;4211244;28;20058;-62
2021/12/07 07:25:05;;;;;;;4.45;3.97;;;16.20;64.20;;;;;;4210526;28;20048;-62
2021/12/07 07:27:27;;;;;;;4.30;3.90;;;16.20;64.30;;;;;;4210518;28;20048;-62
2021/12/07 07:29:49;;;;;;;5.65;4.97;;;16.20;64.30;;;;;;4209815;28;20048;-62
2021/12/07 07:32:11;;;;;;;10.95;3.85;;;16.10;64.10;;;;;;4210078;28;20076;-62
2021/12/07 07:34:36;;;;;;;6.63;4.30;;;16.10;63.90;;;;;;4210596;28;20048;-62
2021/12/07 07:36:57;;;;;;;5.55;3.65;;;16.10;63.90;;;;;;4214890;27;20139;-62
2021/12/07 07:39:20;;;;;;;4.13;3.72;;;16.10;63.90;;;;;;4208293;28;20324;-62
2021/12/07 07:41:41;;;;;;;5.65;3.50;;;16.10;63.90;;;;;;4209911;28;20419;-62
2021/12/07 07:44:05;;;;;;;4.47;3.67;;;16.10;63.70;;;;;;4209546;28;20052;-62
2021/12/07 07:46:36;;;;;;;7.70;3.53;;;16.10;63.30;;;;;;4208060;28;20043;-62
2021/12/07 07:49:00;;;;;;;5.95;3.45;;;16.10;63.00;;;;;;4209795;28;20443;-62
2021/12/07 07:51:23;;;;;;;3.90;3.30;;;16.10;63.00;;;;;;4225186;27;20058;-62
2021/12/07 07:53:45;;;;;;;5.93;3.53;;;16.10;62.70;;;;;;4221467;28;20482;-62
2021/12/07 07:56:08;;;;;;;5.75;3.30;;;16.20;62.50;;;;;;4214947;27;20044;-63
2021/12/07 07:58:30;;;;;;;6.13;3.33;;;16.30;62.50;;;;;;4215249;27;20078;-70
2021/12/07 08:00:53;;;;;;;6.80;3.45;;;16.40;62.40;;;;;;4215886;28;20088;-66
2021/12/07 08:03:15;;;;;;;5.90;3.92;;;16.40;62.40;;;;;;4213526;27;20054;-65
2021/12/07 08:05:37;;;;;;;5.50;3.35;;;16.40;62.60;;;;;;4211294;28;20154;-65
2021/12/07 08:08:02;;;;;;;7.25;3.75;;;16.60;62.60;;;;;;4211399;28;20052;-63
2021/12/07 08:10:28;;;;;;;5.20;4.10;;;16.90;62.00;;;;;;4209811;28;20463;-63
2021/12/07 08:12:50;;;;;;;6.30;3.28;;;17.30;61.10;;;;;;4210105;27;20051;-63
2021/12/07 08:15:12;;;;;;;6.13;3.67;;;17.70;60.00;;;;;;4212809;28;20047;-64
2021/12/07 08:17:34;;;;;;;6.68;3.75;;;18.00;59.00;;;;;;4209106;27;20133;-64
2021/12/07 08:19:57;;;;;;;10.05;4.47;;;18.40;58.10;;;;;;4223688;27;20044;-63
2021/12/07 08:22:19;;;;;;;9.88;5.00;;;18.60;57.40;;;;;;4207601;28;20052;-64
2021/12/07 08:24:43;;;;;;;9.27;4.60;;;18.70;57.00;;;;;;4223729;28;20047;-64
2021/12/07 08:27:05;;;;;;;8.43;4.90;;;18.80;56.90;;;;;;4214333;28;20847;-64
2021/12/07 08:29:47;;;;;;;8.10;4.50;;;18.70;57.00;;;;;;4206234;28;20750;-64
2021/12/07 08:32:09;;;;;;;6.35;4.07;;;18.60;57.20;;;;;;4202804;28;20134;-65
2021/12/07 08:34:32;;;;;;;6.45;3.88;;;18.50;57.50;;;;;;4193967;28;20036;-65
2021/12/07 08:36:54;;;;;;;6.40;4.65;;;18.40;57.90;;;;;;4208598;27;20050;-65
2021/12/07 08:39:16;;;;;;;8.98;4.28;;;18.40;58.20;;;;;;4229540;27;20087;-64
2021/12/07 08:41:40;;;;;;;8.05;4.43;;;18.40;58.20;;;;;;4209134;28;20058;-65
2021/12/07 08:44:02;;;;;;;5.13;3.63;;;18.40;58.00;;;;;;4214925;27;20520;-65
2021/12/07 08:46:24;;;;;;;7.55;4.00;;;18.40;57.90;;;;;;4223235;28;20077;-64
2021/12/07 08:48:47;;;;;;;6.97;4.28;;;18.40;57.90;;;;;;4207036;28;20105;-64
2021/12/07 08:51:10;;;;;;;5.63;3.47;;;18.40;58.00;;;;;;4216262;28;20050;-65
2021/12/07 08:53:34;;;;;;;4.85;3.88;;;18.30;58.10;;;;;;4213100;28;20052;-64
2021/12/07 09:01:21;;;;;;;;;;;18.10;58.80;;;;;;4223298;28;20047;-64
2021/12/07 09:03:44;;;;;;;8.02;4.38;;;18.00;59.10;;;;;;4208974;27;19935;-65
2021/12/07 09:06:07;;;;;;;5.50;3.67;;;17.90;59.50;;;;;;4214275;28;20399;-65
2021/12/07 09:08:29;;;;;;;7.18;4.00;;;17.80;59.60;;;;;;4207502;28;20036;-65
2021/12/07 09:10:52;;;;;;;5.97;3.55;;;17.80;59.60;;;;;;4209579;28;20128;-65
2021/12/07 09:13:14;;;;;;;7.82;3.65;;;17.80;59.80;;;;;;4221934;28;20071;-65
2021/12/07 09:15:38;;;;;;;7.20;4.18;;;17.80;59.90;;;;;;4208062;28;20508;-65
2021/12/07 09:18:00;;;;;;;8.10;3.67;;;17.80;60.00;;;;;;4207299;28;20047;-65
2021/12/07 09:20:22;;;;;;;9.38;3.95;;;17.80;60.10;;;;;;4221361;28;20044;-65
2021/12/07 09:22:45;;;;;;;6.82;3.88;;;17.90;60.00;;;;;;4222956;28;20047;-65
2021/12/07 09:25:08;;;;;;;7.15;3.78;;;17.90;59.80;;;;;;4206985;28;20055;-65
2021/12/07 09:27:30;;;;;;;6.07;3.65;;;17.90;59.70;;;;;;4205524;28;20043;-66
2021/12/07 09:29:56;;;;;;;6.97;4.07;;;17.90;59.70;;;;;;4214316;28;20047;-65
2021/12/07 09:32:21;;;;;;;5.68;3.60;;;17.90;59.80;;;;;;4212497;28;20052;-65
2021/12/07 09:34:43;;;;;;;8.15;3.70;;;18.00;59.60;;;;;;4207339;28;20466;-65
2021/12/07 09:37:05;;;;;;;7.32;3.20;;;18.10;59.40;;;;;;4210602;28;20043;-65
2021/12/07 09:39:27;;;;;;;5.47;3.75;;;18.20;59.30;;;;;;4206015;28;20129;-65
2021/12/07 09:41:50;;;;;;;7.97;3.42;;;18.20;59.20;;;;;;4211401;28;20351;-65
2021/12/07 09:44:13;;;;;;;7.28;3.45;;;18.30;59.10;;;;;;4220044;28;20105;-65
2021/12/07 09:46:36;;;;;;;6.03;3.67;;;18.30;59.00;;;;;;4212462;28;20130;-65
2021/12/07 09:48:59;;;;;;;5.75;3.33;;;18.20;58.90;;;;;;4222357;28;20040;-65
2021/12/07 09:51:23;;;;;;;7.22;4.32;;;18.20;59.10;;;;;;4206207;28;20552;-69
2021/12/07 09:53:46;;;;;;;4.90;3.50;;;18.10;59.30;;;;;;4203024;27;20113;-69
2021/12/07 09:56:09;;;;;;;9.00;4.32;;;18.10;59.60;;;;;;4190681;28;20052;-66
2021/12/07 09:58:31;;;;;;;7.75;4.20;;;18.00;59.60;;;;;;4195470;28;20058;-66
2021/12/07 10:00:55;;;;;;;8.25;3.92;;;18.00;59.60;;;;;;4205259;28;20996;-64
2021/12/07 10:03:18;;;;;;;10.57;5.00;;;18.00;59.60;;;;;;4189695;28;20117;-64
2021/12/07 10:05:42;;;;;;;7.82;3.42;;;17.90;59.60;;;;;;4189465;28;20062;-66
2021/12/07 10:08:05;;;;;;;7.07;3.95;;;17.90;59.80;;;;;;4189424;28;20048;-65
2021/12/07 10:10:30;;;;;;;8.05;3.83;;;17.90;59.90;;;;;;4189829;28;20139;-66
2021/12/07 10:12:52;;;;;;;4.93;3.17;;;17.90;59.80;;;;;;4188798;28;20048;-65
2021/12/07 10:15:15;;;;;;;8.07;4.07;;;17.90;59.80;;;;;;4192459;28;20052;-65
2021/12/07 10:17:38;;;;;;;8.40;4.28;;;17.90;60.00;;;;;;4193629;28;21174;-65
2021/12/07 10:20:00;;;;;;;9.52;4.13;;;17.90;60.30;;;;;;4199699;28;20611;-65
2021/12/07 10:22:24;;;;;;;8.70;4.43;;;18.00;60.20;;;;;;4192047;28;20048;-65
2021/12/07 10:24:49;;;;;;;9.75;4.70;;;18.00;60.00;;;;;;4210143;28;20075;-65
2021/12/07 10:27:11;;;;;;;7.22;4.30;;;18.00;60.00;;;;;;4209117;28;20056;-65
2021/12/07 10:29:35;;;;;;;8.30;3.92;;;17.90;60.00;;;;;;4208262;28;20399;-65
2021/12/07 10:32:01;;;;;;;8.15;4.68;;;17.90;61.20;;;;;;4224191;28;20486;-65
2021/12/07 10:34:28;;;;;;;8.65;5.45;;;17.80;60.60;;;;;;4208873;28;20105;-65
2021/12/07 10:36:53;;;;;;;8.85;4.53;;;17.70;60.90;;;;;;4208817;28;20048;-66
2021/12/07 10:39:19;;;;;;;7.00;4.03;;;17.50;61.40;;;;;;4221285;28;20055;-65
2021/12/07 10:41:44;;;;;;;6.07;3.83;;;17.50;61.80;;;;;;4208350;27;20509;-65
2021/12/07 10:44:09;;;;;;;6.68;3.60;;;17.50;61.90;;;;;;4221392;27;20059;-66
2021/12/07 10:46:41;;;;;;;6.63;4.00;;;17.40;61.90;;;;;;4217157;27;21293;-65
2021/12/07 10:49:34;;;;;;;8.05;3.72;;;17.40;61.90;;;;;;4208335;28;20051;-64
2021/12/07 10:52:11;;;;;;;8.77;4.25;;;17.40;61.90;;;;;;4210548;28;20138;-65
2021/12/07 10:54:37;;;;;;;9.95;4.85;;;17.40;61.90;;;;;;4216219;28;20482;-65
2021/12/07 10:57:02;;;;;;;10.45;4.50;;;17.50;62.10;;;;;;4223985;27;20039;-65
2021/12/07 10:59:24;;;;;;;7.82;3.58;;;17.50;61.70;;;;;;4221961;27;20494;-65
2021/12/07 11:01:50;;;;;;;8.60;3.65;;;17.60;61.60;;;;;;4224598;27;20394;-65
2021/12/07 11:04:19;;;;;;;9.68;3.83;;;17.50;61.80;;;;;;4224947;28;20055;-65
2021/12/07 11:07:06;;;;;;;8.00;4.10;;;17.50;62.10;;;;;;4221441;28;20059;-67
2021/12/07 11:09:28;;;;;;;10.35;3.78;;;17.40;62.50;;;;;;4206703;28;20089;-65
2021/12/07 11:12:07;;;;;;;10.07;3.72;;;17.30;63.40;;;;;;4208326;28;20048;-65
2021/12/07 11:14:38;;;;;;;9.13;3.38;;;17.30;64.00;;;;;;4207890;28;20151;-66
2021/12/07 11:17:01;;;;;;;7.30;3.05;;;17.30;64.30;;;;;;4217531;28;20110;-65
2021/12/07 11:19:23;;;;;;;10.30;4.40;;;17.40;64.10;;;;;;4213325;27;20054;-65
2021/12/07 11:21:45;;;;;;;6.70;3.38;;;17.50;63.90;;;;;;4221897;28;20044;-65
2021/12/07 11:24:07;;;;;;;8.77;3.65;;;17.60;63.50;;;;;;4209187;28;20136;-65
2021/12/07 11:31:54;;;;;;;9.25;3.95;;;17.80;62.20;;;;;;4217362;27;20052;-65
2021/12/07 11:34:18;;;;;;;14.57;4.18;;;17.80;62.20;;;;;;4208534;28;20075;-65
2021/12/07 11:36:42;;;;;;;10.10;3.67;;;17.80;63.20;;;;;;4208540;28;20048;-65
2021/12/07 11:39:20;;;;;;;11.90;3.08;;;17.80;62.60;;;;;;4216120;28;20097;-66
2021/12/07 11:41:42;;;;;;;9.65;3.75;;;17.70;62.60;;;;;;4207959;28;20487;-65
2021/12/07 11:44:08;;;;;;;12.90;3.80;;;17.60;63.10;;;;;;4207876;28;20055;-65
2021/12/07 11:46:34;;;;;;;8.05;3.15;;;17.60;63.20;;;;;;4208265;28;20189;-65
2021/12/07 11:49:12;;;;;;;6.43;3.13;;;17.60;63.30;;;;;;4224203;28;20058;-65
2021/12/07 11:51:34;;;;;;;8.15;3.10;;;17.60;63.20;;;;;;4208581;28;20043;-65
2021/12/07 11:53:56;;;;;;;9.82;3.63;;;17.60;63.40;;;;;;4224341;27;20909;-66
2021/12/07 11:56:18;;;;;;;10.77;3.05;;;17.50;63.40;;;;;;4210826;28;20066;-67
2021/12/07 11:58:40;;;;;;;8.68;3.42;;;17.50;63.60;;;;;;4208603;28;20149;-67
2021/12/07 12:01:06;;;;;;;9.18;3.15;;;17.40;63.80;;;;;;4218378;27;20139;-68
2021/12/07 12:03:30;;;;;;;8.05;3.28;;;17.40;64.30;;;;;;4221785;28;20050;-67
2021/12/07 12:05:54;;;;;;;6.32;2.75;;;17.40;64.30;;;;;;4217548;27;20036;-67
2021/12/07 12:08:19;;;;;;;6.28;2.90;;;17.40;64.30;;;;;;4215694;28;20047;-67
2021/12/07 12:10:45;;;;;;;6.20;2.90;;;17.40;64.20;;;;;;4222787;28;20093;-67
2021/12/07 12:13:17;;;;;;;11.40;3.20;;;17.40;64.30;;;;;;4223575;27;20051;-69
2021/12/07 12:16:03;;;;;;;11.38;3.47;;;17.40;64.50;;;;;;4212814;28;20501;-58
2021/12/07 12:18:37;;;;;;;9.10;2.97;;;17.30;64.10;;;;;;4213218;27;20051;-58
2021/12/07 12:21:12;;;;;;;7.75;3.65;;;17.30;64.90;;;;;;4221758;28;20047;-58
2021/12/07 12:23:46;;;;;;;12.00;3.63;;;17.30;65.40;;;;;;4223412;27;20052;-59
2021/12/07 12:26:10;;;;;;;13.82;4.25;;;17.20;65.70;;;;;;4207086;28;20040;-59
2021/12/07 12:28:38;;;;;;;12.07;3.58;;;17.20;65.90;;;;;;4214779;28;20091;-59
2021/12/07 12:31:00;;;;;;;8.25;3.42;;;17.20;65.80;;;;;;4209513;28;20052;-59
2021/12/07 12:33:23;;;;;;;6.95;3.05;;;17.20;66.00;;;;;;4207451;28;20849;-60
2021/12/07 12:35:52;;;;;;;8.38;3.03;;;17.20;66.00;;;;;;4207043;28;20379;-60
2021/12/07 12:38:21;;;;;;;13.80;4.10;;;17.10;66.10;;;;;;4205960;28;20081;-60
2021/12/07 12:40:43;;;;;;;9.38;3.55;;;17.00;66.00;;;;;;4215988;27;20387;-60
2021/12/07 12:43:05;;;;;;;7.53;3.53;;;16.90;66.50;;;;;;4207172;28;20064;-59
2021/12/07 12:45:31;;;;;;;7.90;2.97;;;16.90;66.70;;;;;;4206612;28;20463;-59
2021/12/07 12:47:59;;;;;;;9.77;3.03;;;16.80;66.70;;;;;;4207495;28;20055;-60
2021/12/07 12:50:25;;;;;;;7.82;3.08;;;16.70;66.80;;;;;;4206827;28;20059;-59
2021/12/07 12:52:52;;;;;;;7.65;2.80;;;16.60;67.10;;;;;;4209870;28;20040;-59
2021/12/07 12:55:39;;;;;;;11.18;3.15;;;16.50;67.00;;;;;;4209964;28;20067;-60
2021/12/07 12:58:03;;;;;;;7.30;3.03;;;16.40;67.20;;;;;;4206778;28;20062;-59
2021/12/07 13:00:45;;;;;;;7.50;3.20;;;16.40;68.10;;;;;;4206890;28;20554;-59
2021/12/07 13:03:10;;;;;;;9.50;2.65;;;16.30;68.40;;;;;;4206677;28;20589;-59
2021/12/07 13:05:36;;;;;;;6.38;2.72;;;16.20;68.70;;;;;;4208183;28;20140;-59
2021/12/07 13:08:18;;;;;;;8.82;3.10;;;16.20;69.90;;;;;;4208422;28;20040;-59
2021/12/07 13:10:56;;;;;;;9.65;2.72;;;16.10;68.80;;;;;;4206755;28;20047;-59
2021/12/07 13:13:26;;;;;;;10.63;2.60;;;16.00;69.90;;;;;;4209639;28;20475;-59
2021/12/07 13:15:48;;;;;;;8.13;2.88;;;16.00;69.50;;;;;;4210068;28;20059;-59
2021/12/07 13:18:20;;;;;;;7.55;3.22;;;15.90;69.90;;;;;;4222963;28;20135;-59
2021/12/07 13:20:45;;;;;;;4.05;2.28;;;15.90;69.80;;;;;;4208554;27;20047;-59
2021/12/07 13:23:10;;;;;;;9.93;3.47;;;15.90;70.90;;;;;;4212990;28;20055;-59
2021/12/07 13:25:35;;;;;;;10.20;2.80;;;15.80;70.30;;;;;;4219408;28;20048;-59
2021/12/07 13:28:25;;;;;;;4.85;2.35;;;15.80;70.30;;;;;;4207211;28;20071;-59
2021/12/07 13:31:17;;;;;;;8.88;3.03;;;15.70;70.00;;;;;;4215099;28;20043;-59
2021/12/07 13:33:42;;;;;;;11.27;3.30;;;15.70;70.50;;;;;;4206865;28;20047;-60
2021/12/07 13:36:36;;;;;;;7.50;3.22;;;15.60;71.20;;;;;;4207139;28;20047;-60
2021/12/07 13:39:01;;;;;;;9.95;2.90;;;15.60;70.40;;;;;;4206845;28;20132;-59
2021/12/07 13:41:24;;;;;;;9.07;2.53;;;15.60;71.10;;;;;;4206735;28;20051;-59
2021/12/07 13:43:48;;;;;;;6.82;2.88;;;15.60;71.30;;;;;;4217817;28;20072;-60
2021/12/07 13:46:13;;;;;;;9.50;2.97;;;15.50;71.20;;;;;;4214775;28;20055;-59
2021/12/07 13:48:35;;;;;;;9.75;3.30;;;15.50;71.50;;;;;;4212522;28;20044;-59
2021/12/07 13:50:58;;;;;;;6.13;2.95;;;15.50;71.60;;;;;;4223409;27;20487;-59